Terminal Aerodrome Forecast
Issued by NWS

Home | Current Version | Previous Version | Text Only | Print | Product List | Glossary On
Versions: 1 2 3 4 5 6 7 8 9 10 11 12 13 14 15 16 17 18 19
000
FTUS43 KLSX 140520
TAFCPS
TAF
KCPS 140520Z 1406/1506 17004KT P6SM FEW200
     FM141200 17006KT P6SM BKN050
     FM142300 18008KT P6SM SCT250
     FM150500 21009KT P6SM SCT250 WS020/22040KT=

USA.gov is the U.S. government's official web portal to all federal, state and local government web resources and services.